createdAt,value
2018-05-17T00:00:31.638Z,0.00
2018-05-17T00:01:31.734Z,0.00
2018-05-17T00:02:31.834Z,0.00
2018-05-17T00:03:31.956Z,0.00
2018-05-17T00:04:32.053Z,0.00
2018-05-17T00:05:32.152Z,0.00
2018-05-17T00:06:32.250Z,0.00
2018-05-17T00:07:32.348Z,0.00
2018-05-17T00:08:32.446Z,0.00
2018-05-17T00:09:32.547Z,0.00
2018-05-17T00:10:32.638Z,0.00
2018-05-17T00:11:32.734Z,0.00
2018-05-17T00:12:32.832Z,0.00
2018-05-17T00:13:32.929Z,0.00
2018-05-17T00:14:33.027Z,0.00
2018-05-17T00:15:33.124Z,0.00
2018-05-17T00:16:33.220Z,0.00
2018-05-17T00:17:33.317Z,0.00
2018-05-17T00:18:33.421Z,0.00
2018-05-17T00:19:33.517Z,0.00
2018-05-17T00:20:33.610Z,0.00
2018-05-17T00:21:33.709Z,0.00
2018-05-17T00:22:33.807Z,0.00
2018-05-17T00:23:33.893Z,0.00
2018-05-17T00:24:33.992Z,0.00
2018-05-17T00:25:34.745Z,0.00
2018-05-17T00:26:34.215Z,0.00
2018-05-17T00:27:34.324Z,0.00
2018-05-17T00:28:34.422Z,0.00
2018-05-17T00:29:34.620Z,0.00
2018-05-17T00:30:34.799Z,0.00
2018-05-17T00:31:34.767Z,0.00
2018-05-17T00:32:34.938Z,0.00
2018-05-17T00:33:34.883Z,0.00
2018-05-17T00:34:35.053Z,0.00
2018-05-17T00:35:35.082Z,0.00
2018-05-17T00:36:35.341Z,0.00
2018-05-17T00:37:35.310Z,0.00
2018-05-17T00:38:35.410Z,0.00
2018-05-17T00:39:35.521Z,0.00
2018-05-17T00:40:35.628Z,0.00
2018-05-17T00:41:35.729Z,0.00
2018-05-17T00:42:35.842Z,0.00
2018-05-17T00:43:35.947Z,0.00
2018-05-17T00:44:36.634Z,0.00
2018-05-17T00:45:36.210Z,0.00
2018-05-17T00:46:36.322Z,0.00
2018-05-17T00:47:36.457Z,0.00
2018-05-17T00:48:36.550Z,0.00
2018-05-17T00:49:36.689Z,0.00
2018-05-17T00:50:36.696Z,0.00
2018-05-17T00:51:36.826Z,0.00
2018-05-17T00:52:36.926Z,0.00
2018-05-17T00:53:37.036Z,0.00
2018-05-17T00:54:37.144Z,0.00
2018-05-17T00:55:37.274Z,0.00
2018-05-17T00:56:37.364Z,0.00
2018-05-17T00:57:37.466Z,0.00
2018-05-17T00:58:37.826Z,0.00
2018-05-17T00:59:37.797Z,0.00
2018-05-17T01:00:37.826Z,0.00
2018-05-17T01:01:37.986Z,0.00
2018-05-17T01:02:38.153Z,0.00
2018-05-17T01:03:38.111Z,0.00
2018-05-17T01:04:38.201Z,0.00
2018-05-17T01:05:38.313Z,0.00
2018-05-17T01:06:38.487Z,0.00
2018-05-17T01:07:38.526Z,0.00
2018-05-17T01:08:38.627Z,0.00
2018-05-17T01:09:38.615Z,0.00
2018-05-17T01:10:38.745Z,0.00
2018-05-17T01:11:38.829Z,0.00
2018-05-17T01:12:38.933Z,0.00
2018-05-17T01:13:39.028Z,0.00
2018-05-17T01:14:39.207Z,0.00
2018-05-17T01:15:39.198Z,0.00
2018-05-17T01:16:39.284Z,0.00
2018-05-17T01:17:39.383Z,0.00
2018-05-17T01:18:39.482Z,0.00
2018-05-17T01:19:39.706Z,0.00
2018-05-17T01:20:39.903Z,0.00
2018-05-17T01:21:40.042Z,0.00
2018-05-17T01:22:40.015Z,0.00
2018-05-17T01:23:40.114Z,0.00
2018-05-17T01:24:40.202Z,0.00
2018-05-17T01:25:40.283Z,0.00
2018-05-17T01:26:40.377Z,0.00
2018-05-17T01:27:40.459Z,0.00
2018-05-17T01:28:40.552Z,0.00
2018-05-17T01:29:40.638Z,0.00
2018-05-17T01:30:40.736Z,0.00
2018-05-17T01:31:40.816Z,0.00
2018-05-17T01:32:40.936Z,0.00
2018-05-17T01:33:41.033Z,0.00
2018-05-17T01:34:41.123Z,0.00
2018-05-17T01:35:41.204Z,0.00
2018-05-17T01:36:41.304Z,0.00
2018-05-17T01:37:41.412Z,0.00
2018-05-17T01:38:41.500Z,0.00
2018-05-17T01:39:41.586Z,0.00
2018-05-17T01:40:41.849Z,0.00
2018-05-17T01:41:41.853Z,0.00
2018-05-17T01:42:41.954Z,0.00
2018-05-17T01:43:42.084Z,0.00
2018-05-17T01:44:42.193Z,0.00
2018-05-17T01:45:42.293Z,0.00
2018-05-17T01:46:42.419Z,0.00
2018-05-17T01:47:42.512Z,0.00
2018-05-17T01:48:42.606Z,0.00
2018-05-17T01:49:42.700Z,0.00
2018-05-17T01:50:42.798Z,0.00
2018-05-17T01:51:42.884Z,0.00
2018-05-17T01:52:42.985Z,0.00
2018-05-17T01:53:43.095Z,0.00
2018-05-17T01:54:43.198Z,0.00
2018-05-17T01:55:43.428Z,0.00
2018-05-17T01:56:43.463Z,0.00
2018-05-17T01:57:43.561Z,0.00
2018-05-17T01:58:43.659Z,0.00
2018-05-17T01:59:43.756Z,0.00
2018-05-17T02:00:43.861Z,0.00
2018-05-17T02:01:43.958Z,0.00
2018-05-17T02:02:44.048Z,0.00
2018-05-17T02:03:44.478Z,0.00
2018-05-17T02:04:44.433Z,0.00
2018-05-17T02:05:44.574Z,0.00
2018-05-17T02:06:44.420Z,0.00
2018-05-17T02:07:44.623Z,0.00
2018-05-17T02:08:44.724Z,0.00
2018-05-17T02:09:44.818Z,0.00
2018-05-17T02:10:44.980Z,0.00
2018-05-17T02:11:44.967Z,0.00
2018-05-17T02:12:45.222Z,0.00
2018-05-17T02:13:45.116Z,0.00
2018-05-17T02:14:45.291Z,0.00
2018-05-17T02:15:45.307Z,0.00
2018-05-17T02:16:45.496Z,0.00
2018-05-17T02:17:45.809Z,0.00
2018-05-17T02:18:45.664Z,0.00
2018-05-17T02:19:45.833Z,0.00
2018-05-17T02:20:45.809Z,0.00
2018-05-17T02:21:45.882Z,0.00
2018-05-17T02:22:45.847Z,0.00
2018-05-17T02:23:45.987Z,0.00
2018-05-17T02:24:46.326Z,0.00
2018-05-17T02:25:46.243Z,0.00
2018-05-17T02:26:46.415Z,0.00
2018-05-17T02:27:46.356Z,0.00
2018-05-17T02:28:46.522Z,0.00
2018-05-17T02:29:46.583Z,0.00
2018-05-17T02:30:46.832Z,0.00
2018-05-17T02:31:46.774Z,0.00
2018-05-17T02:32:46.872Z,0.00
2018-05-17T02:33:46.860Z,0.00
2018-05-17T02:34:46.926Z,0.00
2018-05-17T02:35:47.128Z,0.00
2018-05-17T02:36:47.118Z,0.00
2018-05-17T02:37:47.234Z,0.00
2018-05-17T02:38:47.337Z,0.00
2018-05-17T02:39:47.428Z,0.00
2018-05-17T02:40:47.518Z,0.00
2018-05-17T02:41:47.612Z,0.00
2018-05-17T02:42:47.712Z,0.00
2018-05-17T02:43:47.811Z,0.00
2018-05-17T02:44:48.053Z,0.00
2018-05-17T02:45:47.972Z,0.00
2018-05-17T02:46:48.174Z,0.00
2018-05-17T02:47:48.151Z,0.00
2018-05-17T02:48:48.248Z,0.00
2018-05-17T02:49:48.341Z,0.00
2018-05-17T02:50:48.443Z,0.00
2018-05-17T02:51:48.538Z,0.00
2018-05-17T02:52:48.669Z,4.00
2018-05-17T02:53:48.804Z,4.00
2018-05-17T02:54:48.894Z,4.00
2018-05-17T02:55:48.991Z,4.00
2018-05-17T02:56:49.092Z,4.00
2018-05-17T02:57:49.185Z,4.00
2018-05-17T02:58:49.281Z,0.00
2018-05-17T02:59:49.378Z,4.00
2018-05-17T03:00:49.475Z,4.00
2018-05-17T03:01:49.572Z,4.00
2018-05-17T03:02:49.668Z,4.00
2018-05-17T03:03:49.765Z,8.00
2018-05-17T03:04:49.861Z,4.00
2018-05-17T03:05:49.968Z,8.00
2018-05-17T03:06:50.056Z,4.00
2018-05-17T03:07:50.143Z,8.00
2018-05-17T03:08:50.238Z,8.00
2018-05-17T03:09:50.335Z,8.00
2018-05-17T03:10:50.432Z,12.00
2018-05-17T03:11:50.526Z,12.00
2018-05-17T03:12:50.624Z,12.00
2018-05-17T03:13:50.729Z,12.00
2018-05-17T03:14:50.827Z,12.00
2018-05-17T03:15:50.923Z,16.00
2018-05-17T03:16:51.017Z,20.00
2018-05-17T03:17:51.118Z,24.00
2018-05-17T03:18:51.213Z,24.00
2018-05-17T03:19:51.311Z,28.00
2018-05-17T03:20:51.406Z,32.00
2018-05-17T03:21:51.506Z,36.00
2018-05-17T03:22:51.602Z,40.00
2018-05-17T03:23:51.699Z,44.00
2018-05-17T03:24:51.800Z,52.00
2018-05-17T03:25:51.895Z,56.00
2018-05-17T03:26:51.994Z,64.00
2018-05-17T03:27:52.079Z,72.00
2018-05-17T03:28:52.176Z,80.00
2018-05-17T03:29:52.275Z,88.00
2018-05-17T03:30:52.374Z,96.00
2018-05-17T03:31:52.472Z,100.00
2018-05-17T03:32:52.568Z,112.00
2018-05-17T03:33:52.666Z,120.00
2018-05-17T03:34:52.760Z,128.00
2018-05-17T03:35:52.858Z,140.00
2018-05-17T03:36:52.955Z,156.00
2018-05-17T03:37:53.053Z,176.00
2018-05-17T03:38:53.149Z,192.00
2018-05-17T03:39:53.246Z,208.00
2018-05-17T03:40:53.363Z,224.00
2018-05-17T03:41:53.462Z,236.00
2018-05-17T03:42:53.558Z,244.00
2018-05-17T03:43:53.654Z,252.00
2018-05-17T03:44:53.750Z,264.00
2018-05-17T03:45:53.850Z,280.00
2018-05-17T03:46:53.945Z,296.00
2018-05-17T03:47:54.042Z,312.00
2018-05-17T03:48:54.138Z,336.00
2018-05-17T03:49:54.235Z,356.00
2018-05-17T03:50:54.332Z,380.00
2018-05-17T03:51:54.429Z,404.00
2018-05-17T03:52:54.529Z,428.00
2018-05-17T03:53:54.625Z,456.00
2018-05-17T03:54:54.718Z,488.00
2018-05-17T03:55:54.814Z,524.00
2018-05-17T03:56:54.912Z,560.00
2018-05-17T03:57:55.008Z,604.00
2018-05-17T03:58:55.105Z,640.00
2018-05-17T03:59:55.201Z,688.00
2018-05-17T04:00:55.297Z,732.00
2018-05-17T04:01:55.401Z,764.00
2018-05-17T04:02:55.496Z,796.00
2018-05-17T04:03:55.591Z,832.00
2018-05-17T04:04:55.692Z,860.00
2018-05-17T04:05:55.785Z,904.00
2018-05-17T04:06:55.885Z,948.00
2018-05-17T04:07:55.982Z,988.00
2018-05-17T04:08:56.079Z,1040.00
2018-05-17T04:09:56.174Z,1092.00
2018-05-17T04:10:56.276Z,1148.00
2018-05-17T04:11:56.369Z,1188.00
2018-05-17T04:12:56.464Z,1212.00
2018-05-17T04:13:56.639Z,1284.00
2018-05-17T04:14:56.647Z,1324.00
2018-05-17T04:15:56.776Z,1376.00
2018-05-17T04:16:56.872Z,1456.00
2018-05-17T04:17:56.972Z,1488.00
2018-05-17T04:18:57.068Z,1528.00
2018-05-17T04:19:57.184Z,1552.00
2018-05-17T04:20:57.279Z,1564.00
2018-05-17T04:21:57.359Z,1596.00
2018-05-17T04:22:57.468Z,1504.00
2018-05-17T04:23:57.611Z,1432.00
2018-05-17T04:24:57.633Z,1360.00
2018-05-17T04:25:57.731Z,1400.00
2018-05-17T04:26:57.826Z,1460.00
2018-05-17T04:27:58.001Z,1544.00
2018-05-17T04:28:57.961Z,1764.00
2018-05-17T04:29:58.052Z,1820.00
2018-05-17T04:30:58.153Z,1868.00
2018-05-17T04:31:58.265Z,1880.00
2018-05-17T04:32:58.365Z,1980.00
2018-05-17T04:33:58.461Z,1996.00
2018-05-17T04:34:58.561Z,1956.00
2018-05-17T04:35:58.659Z,2104.00
2018-05-17T04:36:58.755Z,2100.00
2018-05-17T04:37:59.159Z,2148.00
2018-05-17T04:38:58.912Z,2212.00
2018-05-17T04:39:59.017Z,2328.00
2018-05-17T04:40:59.095Z,2420.00
2018-05-17T04:41:59.188Z,2388.00
2018-05-17T04:42:59.889Z,2376.00
2018-05-17T04:43:59.381Z,2412.00
2018-05-17T04:45:00.069Z,2540.00
2018-05-17T04:45:59.572Z,2612.00
2018-05-17T04:46:59.741Z,2628.00
2018-05-17T04:47:59.770Z,2632.00
2018-05-17T04:48:59.867Z,2668.00
2018-05-17T04:49:59.965Z,2552.00
2018-05-17T04:51:00.230Z,2412.00
2018-05-17T04:52:00.157Z,2156.00
2018-05-17T04:53:00.260Z,2192.00
2018-05-17T04:54:00.370Z,2276.00
2018-05-17T04:55:00.471Z,2444.00
2018-05-17T04:56:00.560Z,2560.00
2018-05-17T04:57:00.697Z,2556.00
2018-05-17T04:58:00.908Z,2636.00
2018-05-17T04:59:00.880Z,2540.00
2018-05-17T05:00:01.155Z,2604.00
2018-05-17T05:01:01.047Z,2944.00
2018-05-17T05:02:01.153Z,3072.00
2018-05-17T05:03:01.400Z,2948.00
2018-05-17T05:04:01.350Z,3076.00
2018-05-17T05:05:01.546Z,3092.00
2018-05-17T05:06:01.722Z,3296.00
2018-05-17T05:07:02.088Z,3260.00
2018-05-17T05:08:02.090Z,3428.00
2018-05-17T05:09:01.888Z,3372.00
2018-05-17T05:10:02.158Z,3072.00
2018-05-17T05:11:02.012Z,3000.00
2018-05-17T05:12:02.299Z,3040.00
2018-05-17T05:13:02.255Z,3020.00
2018-05-17T05:14:02.354Z,3296.00
2018-05-17T05:15:02.443Z,3420.00
2018-05-17T05:16:02.546Z,3344.00
2018-05-17T05:17:02.640Z,3124.00
2018-05-17T05:18:02.738Z,3332.00
2018-05-17T05:19:02.837Z,3220.00
2018-05-17T05:20:02.930Z,3508.00
2018-05-17T05:21:03.031Z,3476.00
2018-05-17T05:22:03.128Z,3676.00
2018-05-17T05:23:03.224Z,3356.00
2018-05-17T05:24:03.320Z,3912.00
2018-05-17T05:25:03.422Z,3840.00
2018-05-17T05:26:03.517Z,4168.00
2018-05-17T05:27:03.615Z,3852.00
2018-05-17T05:28:03.721Z,3948.00
2018-05-17T05:29:03.819Z,4228.00
2018-05-17T05:30:03.924Z,4260.00
2018-05-17T05:31:03.999Z,3776.00
2018-05-17T05:32:04.095Z,3792.00
2018-05-17T05:33:04.200Z,4040.00
2018-05-17T05:34:04.356Z,3940.00
2018-05-17T05:35:04.317Z,3672.00
2018-05-17T05:36:04.447Z,3620.00
2018-05-17T05:37:04.534Z,3504.00
2018-05-17T05:38:04.637Z,3208.00
2018-05-17T05:39:04.741Z,3408.00
2018-05-17T05:40:04.915Z,3556.00
2018-05-17T05:41:05.159Z,3772.00
2018-05-17T05:42:05.222Z,3824.00
2018-05-17T05:43:05.210Z,3668.00
2018-05-17T05:44:05.368Z,3652.00
2018-05-17T05:45:05.449Z,3556.00
2018-05-17T05:46:05.601Z,3544.00
2018-05-17T05:47:05.685Z,3376.00
2018-05-17T05:48:05.783Z,3128.00
2018-05-17T05:49:06.002Z,2916.00
2018-05-17T05:50:06.072Z,2864.00
2018-05-17T05:51:06.067Z,2732.00
2018-05-17T05:52:06.197Z,2600.00
2018-05-17T05:53:06.299Z,2456.00
2018-05-17T05:54:06.598Z,2532.00
2018-05-17T05:55:06.595Z,2804.00
2018-05-17T05:56:06.709Z,2944.00
2018-05-17T05:57:06.669Z,3260.00
2018-05-17T05:58:06.789Z,3624.00
2018-05-17T05:59:06.890Z,3448.00
2018-05-17T06:00:06.987Z,3288.00
2018-05-17T06:01:07.103Z,3364.00
2018-05-17T06:02:07.299Z,3204.00
2018-05-17T06:03:07.264Z,3340.00
2018-05-17T06:04:07.360Z,3248.00
2018-05-17T06:05:07.885Z,3424.00
2018-05-17T06:06:07.497Z,3508.00
2018-05-17T06:07:07.742Z,4080.00
2018-05-17T06:08:07.641Z,4128.00
2018-05-17T06:09:07.807Z,4128.00
2018-05-17T06:10:07.771Z,3976.00
2018-05-17T06:11:07.904Z,4104.00
2018-05-17T06:12:07.994Z,3968.00
2018-05-17T06:13:08.487Z,4240.00
2018-05-17T06:14:08.298Z,4356.00
2018-05-17T06:15:08.289Z,4644.00
2018-05-17T06:16:08.395Z,5000.00
2018-05-17T06:17:08.482Z,5476.00
2018-05-17T06:18:08.703Z,5492.00
2018-05-17T06:19:08.731Z,5544.00
2018-05-17T06:20:08.834Z,5824.00
2018-05-17T06:21:08.916Z,5904.00
2018-05-17T06:22:09.010Z,5924.00
2018-05-17T06:23:09.276Z,5892.00
2018-05-17T06:24:09.357Z,5976.00
2018-05-17T06:25:09.331Z,5724.00
2018-05-17T06:26:09.419Z,5960.00
2018-05-17T06:27:09.746Z,5984.00
2018-05-17T06:28:09.595Z,6152.00
2018-05-17T06:29:09.714Z,5564.00
2018-05-17T06:30:09.821Z,5228.00
2018-05-17T06:31:10.174Z,5224.00
2018-05-17T06:32:10.152Z,5352.00
2018-05-17T06:33:10.254Z,5036.00
2018-05-17T06:34:10.219Z,4820.00
2018-05-17T06:35:10.317Z,5008.00
2018-05-17T06:36:10.484Z,5364.00
2018-05-17T06:37:10.507Z,5520.00
2018-05-17T06:38:10.615Z,5192.00
2018-05-17T06:39:10.710Z,5056.00
2018-05-17T06:40:10.816Z,5104.00
2018-05-17T06:41:10.907Z,5368.00
2018-05-17T06:42:11.026Z,5756.00
2018-05-17T06:43:11.153Z,5884.00
2018-05-17T06:44:11.368Z,5992.00
2018-05-17T06:45:11.324Z,5940.00
2018-05-17T06:46:11.449Z,6004.00
2018-05-17T06:47:11.455Z,6296.00
2018-05-17T06:48:11.577Z,6028.00
2018-05-17T06:49:11.708Z,5748.00
2018-05-17T06:50:11.795Z,5696.00
2018-05-17T06:51:11.914Z,5520.00
2018-05-17T06:52:11.995Z,5804.00
2018-05-17T06:53:12.136Z,5868.00
2018-05-17T06:54:12.237Z,6092.00
2018-05-17T06:55:12.335Z,6256.00
2018-05-17T06:56:12.459Z,6400.00
2018-05-17T06:57:12.566Z,6652.00
2018-05-17T06:58:12.675Z,6744.00
2018-05-17T06:59:12.775Z,7100.00
2018-05-17T07:00:12.862Z,7516.00
2018-05-17T07:01:13.032Z,8028.00
2018-05-17T07:02:13.103Z,8000.00
2018-05-17T07:03:13.226Z,8116.00
2018-05-17T07:04:13.370Z,8216.00
2018-05-17T07:05:13.463Z,8092.00
2018-05-17T07:06:13.551Z,7996.00
2018-05-17T07:07:13.636Z,7952.00
2018-05-17T07:08:13.748Z,7736.00
2018-05-17T07:09:13.877Z,7792.00
2018-05-17T07:10:13.974Z,7740.00
2018-05-17T07:11:14.118Z,7944.00
2018-05-17T07:12:14.242Z,8004.00
2018-05-17T07:13:14.352Z,8032.00
2018-05-17T07:14:14.458Z,7928.00
2018-05-17T07:15:14.560Z,7760.00
2018-05-17T07:16:14.658Z,7528.00
2018-05-17T07:17:14.774Z,7352.00
2018-05-17T07:18:15.027Z,7392.00
2018-05-17T07:19:14.932Z,7384.00
2018-05-17T07:20:15.046Z,7528.00
2018-05-17T07:21:15.143Z,7268.00
2018-05-17T07:22:15.240Z,7232.00
2018-05-17T07:23:15.332Z,7052.00
2018-05-17T07:24:15.499Z,7188.00
2018-05-17T07:25:15.557Z,7276.00
2018-05-17T07:26:15.640Z,7268.00
2018-05-17T07:27:15.771Z,6672.00
2018-05-17T07:28:15.862Z,6484.00
2018-05-17T07:29:15.955Z,6220.00
2018-05-17T07:30:16.084Z,6016.00
2018-05-17T07:31:16.233Z,6008.00
2018-05-17T07:32:16.269Z,6044.00
2018-05-17T07:33:16.371Z,6180.00
2018-05-17T07:34:16.461Z,6380.00
2018-05-17T07:35:16.586Z,6388.00
2018-05-17T07:36:16.674Z,6456.00
2018-05-17T07:37:16.807Z,6668.00
2018-05-17T07:38:16.921Z,6724.00
2018-05-17T07:39:17.070Z,6724.00
2018-05-17T07:40:17.214Z,6728.00
2018-05-17T07:41:17.337Z,6812.00
2018-05-17T07:42:17.453Z,6872.00
2018-05-17T07:43:17.557Z,6900.00
2018-05-17T07:44:17.646Z,7140.00
2018-05-17T07:45:17.778Z,7388.00
2018-05-17T07:46:17.879Z,7468.00
2018-05-17T07:47:18.075Z,7692.00
2018-05-17T07:48:18.079Z,7836.00
2018-05-17T07:49:18.192Z,7920.00
2018-05-17T07:50:18.322Z,8020.00
2018-05-17T07:51:18.456Z,8100.00
2018-05-17T07:52:18.588Z,7628.00
2018-05-17T07:53:18.697Z,7492.00
2018-05-17T07:54:18.796Z,8208.00
2018-05-17T07:55:18.914Z,7740.00
2018-05-17T07:56:19.011Z,8148.00
2018-05-17T07:57:19.109Z,7888.00
2018-05-17T07:58:19.212Z,7796.00
2018-05-17T07:59:19.343Z,7812.00
2018-05-17T08:00:19.442Z,7796.00
2018-05-17T08:01:19.533Z,7788.00
2018-05-17T08:02:19.684Z,7876.00
2018-05-17T08:03:19.783Z,8056.00
2018-05-17T08:04:19.943Z,7924.00
2018-05-17T08:05:20.041Z,7920.00
2018-05-17T08:06:20.141Z,7940.00
2018-05-17T08:07:20.240Z,7996.00
2018-05-17T08:08:20.338Z,8204.00
2018-05-17T08:09:20.507Z,8728.00
2018-05-17T08:10:20.537Z,8912.00
2018-05-17T08:11:20.638Z,9228.00
2018-05-17T08:12:20.737Z,9156.00
2018-05-17T08:13:20.829Z,8980.00
2018-05-17T08:14:20.929Z,7896.00
2018-05-17T08:15:21.027Z,7564.00
2018-05-17T08:16:21.129Z,7680.00
2018-05-17T08:17:21.228Z,7848.00
2018-05-17T08:18:21.335Z,7756.00
2018-05-17T08:19:21.428Z,7968.00
2018-05-17T08:20:21.524Z,7748.00
2018-05-17T08:21:21.624Z,7784.00
2018-05-17T08:22:21.720Z,7460.00
2018-05-17T08:23:21.821Z,7268.00
2018-05-17T08:24:21.921Z,7252.00
2018-05-17T08:25:22.019Z,7416.00
2018-05-17T08:26:22.123Z,7400.00
2018-05-17T08:27:22.221Z,7360.00
2018-05-17T08:28:22.320Z,7448.00
2018-05-17T08:29:22.424Z,7488.00
2018-05-17T08:30:22.520Z,7280.00
2018-05-17T08:31:22.625Z,6852.00
2018-05-17T08:32:22.721Z,7068.00
2018-05-17T08:33:22.827Z,7212.00
2018-05-17T08:34:22.927Z,7664.00
2018-05-17T08:35:23.026Z,8692.00
2018-05-17T08:36:23.187Z,8868.00
2018-05-17T08:37:23.225Z,8256.00
2018-05-17T08:38:23.324Z,8556.00
2018-05-17T08:39:23.425Z,8364.00
2018-05-17T08:40:23.539Z,8252.00
2018-05-17T08:41:23.638Z,8228.00
2018-05-17T08:42:23.739Z,8128.00
2018-05-17T08:43:23.838Z,7820.00
2018-05-17T08:44:23.938Z,8656.00
2018-05-17T08:45:24.038Z,8072.00
2018-05-17T08:46:24.137Z,8408.00
2018-05-17T08:47:24.252Z,8044.00
2018-05-17T08:48:24.348Z,8108.00
2018-05-17T08:49:24.451Z,8064.00
2018-05-17T08:50:24.549Z,7124.00
2018-05-17T08:51:24.651Z,6912.00
2018-05-17T08:52:24.749Z,6796.00
2018-05-17T08:53:24.848Z,6728.00
2018-05-17T08:54:24.977Z,6720.00
2018-05-17T08:55:25.064Z,6676.00
2018-05-17T08:56:25.165Z,6668.00
2018-05-17T08:57:25.259Z,6628.00
2018-05-17T08:58:25.374Z,6620.00
2018-05-17T08:59:25.473Z,6592.00
2018-05-17T09:00:25.575Z,6696.00
2018-05-17T09:01:25.670Z,6812.00
2018-05-17T09:02:25.769Z,6948.00
2018-05-17T09:03:25.871Z,7120.00
2018-05-17T09:04:25.970Z,7320.00
2018-05-17T09:05:26.082Z,7348.00
2018-05-17T09:06:26.172Z,7404.00
2018-05-17T09:07:26.271Z,7452.00
2018-05-17T09:08:26.384Z,7484.00
2018-05-17T09:09:26.479Z,7508.00
2018-05-17T09:10:26.575Z,7544.00
2018-05-17T09:11:26.678Z,7672.00
2018-05-17T09:12:26.781Z,7812.00
2018-05-17T09:13:26.883Z,8064.00
2018-05-17T09:14:26.982Z,8364.00
2018-05-17T09:15:27.094Z,8828.00
2018-05-17T09:16:27.199Z,9016.00
2018-05-17T09:17:27.351Z,9508.00
2018-05-17T09:18:27.444Z,8968.00
2018-05-17T09:19:27.549Z,9940.00
2018-05-17T09:20:27.694Z,9760.00
2018-05-17T09:21:27.743Z,9708.00
2018-05-17T09:22:27.845Z,9804.00
2018-05-17T09:23:27.939Z,9764.00
2018-05-17T09:24:28.055Z,9736.00
2018-05-17T09:25:28.145Z,9704.00
2018-05-17T09:26:28.252Z,9728.00
2018-05-17T09:27:28.352Z,9724.00
2018-05-17T09:28:28.454Z,9716.00
2018-05-17T09:29:28.573Z,9240.00
2018-05-17T09:30:28.672Z,8692.00
2018-05-17T09:31:28.789Z,8492.00
2018-05-17T09:32:28.835Z,8336.00
2018-05-17T09:33:28.957Z,8596.00
2018-05-17T09:34:29.074Z,8304.00
2018-05-17T09:35:29.174Z,8304.00
2018-05-17T09:36:29.276Z,8320.00
2018-05-17T09:37:29.369Z,8320.00
2018-05-17T09:38:29.485Z,8316.00
2018-05-17T09:39:29.585Z,8328.00
2018-05-17T09:40:29.685Z,8408.00
2018-05-17T09:41:29.828Z,8492.00
2018-05-17T09:42:29.892Z,8600.00
2018-05-17T09:43:29.992Z,8912.00
2018-05-17T09:44:30.095Z,8852.00
2018-05-17T09:45:30.193Z,8888.00
2018-05-17T09:46:30.293Z,8932.00
2018-05-17T09:47:30.430Z,8980.00
2018-05-17T09:48:30.498Z,9160.00
2018-05-17T09:49:30.595Z,9072.00
2018-05-17T09:50:30.722Z,9120.00
2018-05-17T09:51:30.934Z,9252.00
2018-05-17T09:52:30.908Z,9312.00
2018-05-17T09:53:31.009Z,9272.00
2018-05-17T09:54:31.109Z,9408.00
2018-05-17T09:55:31.212Z,9628.00
2018-05-17T09:56:31.310Z,9960.00
2018-05-17T09:57:31.411Z,9940.00
2018-05-17T09:58:31.547Z,9292.00
2018-05-17T09:59:31.647Z,9164.00
2018-05-17T10:00:31.746Z,9796.00
2018-05-17T10:01:31.854Z,8784.00
2018-05-17T10:02:31.956Z,8580.00
2018-05-17T10:03:32.055Z,9008.00
2018-05-17T10:04:32.153Z,9436.00
2018-05-17T10:05:32.255Z,8476.00
2018-05-17T10:06:32.353Z,8228.00
2018-05-17T10:07:32.485Z,8148.00
2018-05-17T10:08:32.584Z,8132.00
2018-05-17T10:09:32.700Z,8216.00
2018-05-17T10:10:32.816Z,8112.00
2018-05-17T10:11:32.919Z,8784.00
2018-05-17T10:12:33.044Z,7772.00
2018-05-17T10:13:33.101Z,7736.00
2018-05-17T10:14:33.281Z,7696.00
2018-05-17T10:15:33.393Z,7672.00
2018-05-17T10:16:33.418Z,7604.00
2018-05-17T10:17:33.512Z,7524.00
2018-05-17T10:18:33.619Z,7440.00
2018-05-17T10:19:33.725Z,7420.00
2018-05-17T10:20:33.817Z,7408.00
2018-05-17T10:21:33.941Z,7384.00
2018-05-17T10:22:34.024Z,7420.00
2018-05-17T10:23:34.173Z,8200.00
2018-05-17T10:24:34.270Z,7580.00
2018-05-17T10:25:34.366Z,7728.00
2018-05-17T10:26:34.524Z,7912.00
2018-05-17T10:27:34.647Z,8036.00
2018-05-17T10:28:34.647Z,7692.00
2018-05-17T10:29:34.730Z,8444.00
2018-05-17T10:30:34.786Z,7760.00
2018-05-17T10:31:34.875Z,8464.00
2018-05-17T10:32:34.961Z,8164.00
2018-05-17T10:33:35.090Z,8796.00
2018-05-17T10:34:35.144Z,9492.00
2018-05-17T10:35:35.332Z,9292.00
2018-05-17T10:36:35.293Z,9348.00
2018-05-17T10:37:35.388Z,9488.00
2018-05-17T10:38:35.710Z,9404.00
2018-05-17T10:39:35.613Z,9332.00
2018-05-17T10:40:35.702Z,9348.00
2018-05-17T10:41:35.806Z,9472.00
2018-05-17T10:42:35.898Z,9656.00
2018-05-17T10:43:36.000Z,9696.00
2018-05-17T10:44:36.129Z,9608.00
2018-05-17T10:45:36.241Z,9788.00
2018-05-17T10:46:36.205Z,9876.00
2018-05-17T10:47:36.432Z,9764.00
2018-05-17T10:48:36.373Z,10236.00
2018-05-17T10:49:36.675Z,9824.00
2018-05-17T10:50:36.729Z,9680.00
2018-05-17T10:51:36.692Z,9568.00
2018-05-17T10:52:36.786Z,9516.00
2018-05-17T10:53:36.904Z,9764.00
2018-05-17T10:54:37.014Z,9552.00
2018-05-17T10:55:37.126Z,9388.00
2018-05-17T10:56:37.219Z,9216.00
2018-05-17T10:57:37.327Z,9252.00
2018-05-17T10:58:37.540Z,9412.00
2018-05-17T10:59:37.508Z,9044.00
2018-05-17T11:00:37.598Z,8624.00
2018-05-17T11:01:37.687Z,8900.00
2018-05-17T11:02:37.973Z,8960.00
2018-05-17T11:03:37.906Z,8848.00
2018-05-17T11:04:37.996Z,8860.00
2018-05-17T11:05:38.106Z,8808.00
2018-05-17T11:06:38.319Z,8816.00
2018-05-17T11:07:38.323Z,8788.00
2018-05-17T11:08:38.423Z,8896.00
2018-05-17T11:09:38.527Z,8828.00
2018-05-17T11:10:38.628Z,8744.00
2018-05-17T11:11:38.791Z,8956.00
2018-05-17T11:12:38.770Z,8852.00
2018-05-17T11:13:38.988Z,8904.00
2018-05-17T11:14:38.951Z,8960.00
2018-05-17T11:15:39.051Z,8764.00
2018-05-17T11:16:39.159Z,8308.00
2018-05-17T11:17:39.329Z,8096.00
2018-05-17T11:18:39.297Z,8180.00
2018-05-17T11:19:39.457Z,7860.00
2018-05-17T11:20:39.544Z,7692.00
2018-05-17T11:21:39.810Z,7912.00
2018-05-17T11:22:39.780Z,8232.00
2018-05-17T11:23:39.868Z,8080.00
2018-05-17T11:24:39.964Z,7956.00
2018-05-17T11:25:40.072Z,7640.00
2018-05-17T11:26:40.301Z,7320.00
2018-05-17T11:27:40.278Z,7616.00
2018-05-17T11:28:40.366Z,7900.00
2018-05-17T11:29:40.474Z,8292.00
2018-05-17T11:30:40.579Z,8120.00
2018-05-17T11:31:40.680Z,7888.00
2018-05-17T11:32:40.782Z,8036.00
2018-05-17T11:33:40.903Z,7884.00
2018-05-17T11:34:40.998Z,8016.00
2018-05-17T11:35:41.102Z,7556.00
2018-05-17T11:36:41.195Z,7504.00
2018-05-17T11:37:41.294Z,7172.00
2018-05-17T11:38:41.430Z,7196.00
2018-05-17T11:39:41.533Z,7052.00
2018-05-17T11:40:41.696Z,7040.00
2018-05-17T11:41:41.676Z,6996.00
2018-05-17T11:42:41.785Z,7152.00
2018-05-17T11:43:41.874Z,6940.00
2018-05-17T11:44:41.967Z,7236.00
2018-05-17T11:45:42.051Z,6928.00
2018-05-17T11:46:42.151Z,6728.00
2018-05-17T11:47:42.275Z,6856.00
2018-05-17T11:48:42.376Z,6928.00
2018-05-17T11:49:42.492Z,7284.00
2018-05-17T11:50:42.596Z,7616.00
2018-05-17T11:51:42.728Z,7808.00
2018-05-17T11:52:42.831Z,7844.00
2018-05-17T11:53:42.930Z,7368.00
2018-05-17T11:54:43.021Z,7504.00
2018-05-17T11:55:43.106Z,7732.00
2018-05-17T11:56:43.198Z,7500.00
2018-05-17T11:57:43.311Z,7780.00
2018-05-17T11:58:43.465Z,8384.00
2018-05-17T11:59:43.525Z,8856.00
2018-05-17T12:00:43.630Z,8920.00
2018-05-17T12:01:43.728Z,8900.00
2018-05-17T12:02:43.847Z,8864.00
2018-05-17T12:03:43.934Z,8700.00
2018-05-17T12:04:44.044Z,8536.00
2018-05-17T12:05:44.125Z,8276.00
2018-05-17T12:06:44.300Z,8404.00
2018-05-17T12:07:44.369Z,8132.00
2018-05-17T12:08:44.468Z,8272.00
2018-05-17T12:09:44.618Z,8328.00
2018-05-17T12:10:44.642Z,8324.00
2018-05-17T12:11:44.783Z,8364.00
2018-05-17T12:12:44.886Z,8416.00
2018-05-17T12:13:44.990Z,8236.00
2018-05-17T12:14:45.085Z,8312.00
2018-05-17T12:15:45.183Z,8360.00
2018-05-17T12:16:45.287Z,8404.00
2018-05-17T12:17:45.386Z,8504.00
2018-05-17T12:18:45.489Z,8532.00
2018-05-17T12:19:45.596Z,8348.00
2018-05-17T12:20:45.704Z,7756.00
2018-05-17T12:21:45.794Z,7552.00
2018-05-17T12:22:45.972Z,8016.00
2018-05-17T12:23:45.952Z,7912.00
2018-05-17T12:24:46.053Z,8132.00
2018-05-17T12:25:46.154Z,8172.00
2018-05-17T12:26:46.253Z,8320.00